sensor_id;sensor_type;location;lat;lon;timestamp;temperature;humidity
10149;DHT22;5115;50.920;6.376;2023-05-29T00:00:26;17.50;99.90
10149;DHT22;5115;50.920;6.376;2023-05-29T00:02:51;17.50;99.90
10149;DHT22;5115;50.920;6.376;2023-05-29T00:05:17;17.40;99.90
10149;DHT22;5115;50.920;6.376;2023-05-29T00:07:43;17.50;99.90
10149;DHT22;5115;50.920;6.376;2023-05-29T00:10:10;17.30;99.90
10149;DHT22;5115;50.920;6.376;2023-05-29T00:12:37;17.20;99.90
10149;DHT22;5115;50.920;6.376;2023-05-29T00:15:03;17.10;99.90
10149;DHT22;5115;50.920;6.376;2023-05-29T00:17:32;16.90;99.90
10149;DHT22;5115;50.920;6.376;2023-05-29T00:19:58;17.00;99.90
10149;DHT22;5115;50.920;6.376;2023-05-29T00:22:24;16.90;99.90
10149;DHT22;5115;50.920;6.376;2023-05-29T00:24:50;16.90;99.90
10149;DHT22;5115;50.920;6.376;2023-05-29T00:27:16;16.80;99.90
10149;DHT22;5115;50.920;6.376;2023-05-29T00:29:42;16.80;99.90
10149;DHT22;5115;50.920;6.376;2023-05-29T00:32:07;16.80;99.90
10149;DHT22;5115;50.920;6.376;2023-05-29T00:34:33;16.60;99.90
10149;DHT22;5115;50.920;6.376;2023-05-29T00:36:59;16.80;99.90
10149;DHT22;5115;50.920;6.376;2023-05-29T00:39:26;16.90;99.90
10149;DHT22;5115;50.920;6.376;2023-05-29T00:41:52;16.90;99.90
10149;DHT22;5115;50.920;6.376;2023-05-29T00:44:18;16.80;99.90
10149;DHT22;5115;50.920;6.376;2023-05-29T00:46:45;16.80;99.90
10149;DHT22;5115;50.920;6.376;2023-05-29T00:49:12;16.80;99.90
10149;DHT22;5115;50.920;6.376;2023-05-29T00:51:38;16.70;99.90
10149;DHT22;5115;50.920;6.376;2023-05-29T00:54:07;16.80;99.90
10149;DHT22;5115;50.920;6.376;2023-05-29T00:56:35;16.80;99.90
10149;DHT22;5115;50.920;6.376;2023-05-29T00:59:01;16.80;99.90
10149;DHT22;5115;50.920;6.376;2023-05-29T01:01:26;16.70;99.90
10149;DHT22;5115;50.920;6.376;2023-05-29T01:03:55;16.60;99.90
10149;DHT22;5115;50.920;6.376;2023-05-29T01:06:22;16.40;99.90
10149;DHT22;5115;50.920;6.376;2023-05-29T01:08:48;16.40;99.90
10149;DHT22;5115;50.920;6.376;2023-05-29T01:11:31;16.40;99.90
10149;DHT22;5115;50.920;6.376;2023-05-29T01:14:06;16.30;99.90
10149;DHT22;5115;50.920;6.376;2023-05-29T01:22:19;16.20;99.90
10149;DHT22;5115;50.920;6.376;2023-05-29T01:27:40;16.10;99.90
10149;DHT22;5115;50.920;6.376;2023-05-29T01:30:08;16.00;99.90
10149;DHT22;5115;50.920;6.376;2023-05-29T01:32:35;16.00;99.90
10149;DHT22;5115;50.920;6.376;2023-05-29T01:35:01;15.90;99.90
10149;DHT22;5115;50.920;6.376;2023-05-29T01:37:27;15.80;99.90
10149;DHT22;5115;50.920;6.376;2023-05-29T01:39:53;15.70;99.90
10149;DHT22;5115;50.920;6.376;2023-05-29T01:42:19;15.70;99.90
10149;DHT22;5115;50.920;6.376;2023-05-29T01:44:45;15.60;99.90
10149;DHT22;5115;50.920;6.376;2023-05-29T01:47:12;15.40;99.90
10149;DHT22;5115;50.920;6.376;2023-05-29T01:49:39;15.40;99.90
10149;DHT22;5115;50.920;6.376;2023-05-29T01:52:06;15.50;99.90
10149;DHT22;5115;50.920;6.376;2023-05-29T01:54:32;15.70;99.90
10149;DHT22;5115;50.920;6.376;2023-05-29T01:56:59;15.50;99.90
10149;DHT22;5115;50.920;6.376;2023-05-29T01:59:25;15.40;99.90
10149;DHT22;5115;50.920;6.376;2023-05-29T02:01:50;15.30;99.90
10149;DHT22;5115;50.920;6.376;2023-05-29T02:04:16;15.30;99.90
10149;DHT22;5115;50.920;6.376;2023-05-29T02:06:41;15.20;99.90
10149;DHT22;5115;50.920;6.376;2023-05-29T02:09:07;15.10;99.90
10149;DHT22;5115;50.920;6.376;2023-05-29T02:11:34;15.20;99.90
10149;DHT22;5115;50.920;6.376;2023-05-29T02:13:59;14.90;99.90
10149;DHT22;5115;50.920;6.376;2023-05-29T02:16:28;14.90;99.90
10149;DHT22;5115;50.920;6.376;2023-05-29T02:18:54;14.70;99.90
10149;DHT22;5115;50.920;6.376;2023-05-29T02:21:20;14.70;99.90
10149;DHT22;5115;50.920;6.376;2023-05-29T02:23:45;14.80;99.90
10149;DHT22;5115;50.920;6.376;2023-05-29T02:26:12;14.60;99.90
10149;DHT22;5115;50.920;6.376;2023-05-29T02:28:39;14.90;99.90
10149;DHT22;5115;50.920;6.376;2023-05-29T02:31:04;14.90;99.90
10149;DHT22;5115;50.920;6.376;2023-05-29T02:33:30;14.90;99.90
10149;DHT22;5115;50.920;6.376;2023-05-29T02:35:56;15.00;99.90
10149;DHT22;5115;50.920;6.376;2023-05-29T02:38:21;14.90;99.90
10149;DHT22;5115;50.920;6.376;2023-05-29T02:40:47;14.80;99.90
10149;DHT22;5115;50.920;6.376;2023-05-29T02:43:13;14.80;99.90
10149;DHT22;5115;50.920;6.376;2023-05-29T02:45:39;14.80;99.90
10149;DHT22;5115;50.920;6.376;2023-05-29T02:48:05;14.90;99.90
10149;DHT22;5115;50.920;6.376;2023-05-29T02:50:31;14.80;99.90
10149;DHT22;5115;50.920;6.376;2023-05-29T02:52:57;14.90;99.90
10149;DHT22;5115;50.920;6.376;2023-05-29T02:55:22;14.80;99.90
10149;DHT22;5115;50.920;6.376;2023-05-29T02:57:48;14.80;99.90
10149;DHT22;5115;50.920;6.376;2023-05-29T03:00:16;14.70;99.90
10149;DHT22;5115;50.920;6.376;2023-05-29T03:02:43;14.70;99.90
10149;DHT22;5115;50.920;6.376;2023-05-29T03:05:09;14.60;99.90
10149;DHT22;5115;50.920;6.376;2023-05-29T03:07:34;14.50;99.90
10149;DHT22;5115;50.920;6.376;2023-05-29T03:10:00;14.50;99.90
10149;DHT22;5115;50.920;6.376;2023-05-29T03:12:26;14.30;99.90
10149;DHT22;5115;50.920;6.376;2023-05-29T03:14:53;14.10;99.90
10149;DHT22;5115;50.920;6.376;2023-05-29T03:17:19;14.00;99.90
10149;DHT22;5115;50.920;6.376;2023-05-29T03:19:46;14.00;99.90
10149;DHT22;5115;50.920;6.376;2023-05-29T03:22:11;14.00;99.90
10149;DHT22;5115;50.920;6.376;2023-05-29T03:24:37;14.00;99.90
10149;DHT22;5115;50.920;6.376;2023-05-29T03:27:03;13.60;99.90
10149;DHT22;5115;50.920;6.376;2023-05-29T03:29:30;13.60;99.90
10149;DHT22;5115;50.920;6.376;2023-05-29T03:31:56;13.50;99.90
10149;DHT22;5115;50.920;6.376;2023-05-29T03:34:22;13.60;99.90
10149;DHT22;5115;50.920;6.376;2023-05-29T03:36:47;13.40;99.90
10149;DHT22;5115;50.920;6.376;2023-05-29T03:39:13;13.40;99.90
10149;DHT22;5115;50.920;6.376;2023-05-29T03:41:38;13.20;99.90
10149;DHT22;5115;50.920;6.376;2023-05-29T03:44:04;13.20;99.90
10149;DHT22;5115;50.920;6.376;2023-05-29T03:46:30;13.30;99.90
10149;DHT22;5115;50.920;6.376;2023-05-29T03:48:56;13.30;99.90
10149;DHT22;5115;50.920;6.376;2023-05-29T03:51:22;13.30;99.90
10149;DHT22;5115;50.920;6.376;2023-05-29T03:53:47;13.40;99.90
10149;DHT22;5115;50.920;6.376;2023-05-29T03:56:13;13.40;99.90
10149;DHT22;5115;50.920;6.376;2023-05-29T03:58:40;13.50;99.90
10149;DHT22;5115;50.920;6.376;2023-05-29T04:01:06;13.60;99.90
10149;DHT22;5115;50.920;6.376;2023-05-29T04:03:32;13.40;99.90
10149;DHT22;5115;50.920;6.376;2023-05-29T04:05:57;13.50;99.90
10149;DHT22;5115;50.920;6.376;2023-05-29T04:08:23;13.40;99.90
10149;DHT22;5115;50.920;6.376;2023-05-29T04:10:48;13.40;99.90
10149;DHT22;5115;50.920;6.376;2023-05-29T04:13:14;13.40;99.90
10149;DHT22;5115;50.920;6.376;2023-05-29T04:15:40;13.50;99.90
10149;DHT22;5115;50.920;6.376;2023-05-29T04:18:07;13.70;99.90
10149;DHT22;5115;50.920;6.376;2023-05-29T04:20:32;13.80;99.90
10149;DHT22;5115;50.920;6.376;2023-05-29T04:22:58;13.90;99.90
10149;DHT22;5115;50.920;6.376;2023-05-29T04:25:24;14.00;99.90
10149;DHT22;5115;50.920;6.376;2023-05-29T04:27:49;13.90;99.90
10149;DHT22;5115;50.920;6.376;2023-05-29T04:30:15;14.00;99.90
10149;DHT22;5115;50.920;6.376;2023-05-29T04:32:41;14.30;99.90
10149;DHT22;5115;50.920;6.376;2023-05-29T04:35:08;14.40;99.90
10149;DHT22;5115;50.920;6.376;2023-05-29T04:37:35;14.50;99.90
10149;DHT22;5115;50.920;6.376;2023-05-29T04:40:07;14.60;99.90
10149;DHT22;5115;50.920;6.376;2023-05-29T04:42:37;14.50;99.90
10149;DHT22;5115;50.920;6.376;2023-05-29T04:45:03;14.60;99.90
10149;DHT22;5115;50.920;6.376;2023-05-29T04:47:33;14.80;99.90
10149;DHT22;5115;50.920;6.376;2023-05-29T04:49:59;14.80;99.90
10149;DHT22;5115;50.920;6.376;2023-05-29T04:52:26;14.90;99.90
10149;DHT22;5115;50.920;6.376;2023-05-29T04:54:51;14.80;99.90
10149;DHT22;5115;50.920;6.376;2023-05-29T04:57:17;14.80;99.90
10149;DHT22;5115;50.920;6.376;2023-05-29T04:59:43;14.80;99.90
10149;DHT22;5115;50.920;6.376;2023-05-29T05:02:08;14.90;99.90
10149;DHT22;5115;50.920;6.376;2023-05-29T05:04:34;15.10;99.90
10149;DHT22;5115;50.920;6.376;2023-05-29T05:07:02;15.20;99.90
10149;DHT22;5115;50.920;6.376;2023-05-29T05:09:28;15.20;99.90
10149;DHT22;5115;50.920;6.376;2023-05-29T05:11:58;15.20;99.90
10149;DHT22;5115;50.920;6.376;2023-05-29T05:14:24;15.40;99.90
10149;DHT22;5115;50.920;6.376;2023-05-29T05:16:49;15.40;99.90
10149;DHT22;5115;50.920;6.376;2023-05-29T05:19:16;15.60;99.90
10149;DHT22;5115;50.920;6.376;2023-05-29T05:21:42;15.70;99.90
10149;DHT22;5115;50.920;6.376;2023-05-29T05:24:08;15.50;99.90
10149;DHT22;5115;50.920;6.376;2023-05-29T05:26:33;15.50;99.90
10149;DHT22;5115;50.920;6.376;2023-05-29T05:28:59;15.60;99.90
10149;DHT22;5115;50.920;6.376;2023-05-29T05:31:25;15.30;99.90
10149;DHT22;5115;50.920;6.376;2023-05-29T05:33:50;15.40;99.90
10149;DHT22;5115;50.920;6.376;2023-05-29T05:36:16;15.40;99.90
10149;DHT22;5115;50.920;6.376;2023-05-29T05:38:42;15.40;99.90
10149;DHT22;5115;50.920;6.376;2023-05-29T05:41:07;15.70;99.90
10149;DHT22;5115;50.920;6.376;2023-05-29T05:43:33;15.60;99.90
10149;DHT22;5115;50.920;6.376;2023-05-29T05:45:58;15.90;99.90
10149;DHT22;5115;50.920;6.376;2023-05-29T05:48:24;15.80;99.90
10149;DHT22;5115;50.920;6.376;2023-05-29T05:50:49;15.90;99.90
10149;DHT22;5115;50.920;6.376;2023-05-29T05:53:15;16.20;99.90
10149;DHT22;5115;50.920;6.376;2023-05-29T05:55:42;16.40;99.90
10149;DHT22;5115;50.920;6.376;2023-05-29T05:58:07;16.60;99.90
10149;DHT22;5115;50.920;6.376;2023-05-29T06:00:33;16.80;99.90
10149;DHT22;5115;50.920;6.376;2023-05-29T06:02:58;16.90;99.90
10149;DHT22;5115;50.920;6.376;2023-05-29T06:05:25;16.60;99.90
10149;DHT22;5115;50.920;6.376;2023-05-29T06:07:51;16.60;99.90
10149;DHT22;5115;50.920;6.376;2023-05-29T06:10:17;16.60;99.90
10149;DHT22;5115;50.920;6.376;2023-05-29T06:12:42;16.70;99.90
10149;DHT22;5115;50.920;6.376;2023-05-29T06:15:09;16.90;99.90
10149;DHT22;5115;50.920;6.376;2023-05-29T06:17:34;16.90;99.90
10149;DHT22;5115;50.920;6.376;2023-05-29T06:20:00;16.90;99.90
10149;DHT22;5115;50.920;6.376;2023-05-29T06:22:25;17.20;99.90
10149;DHT22;5115;50.920;6.376;2023-05-29T06:24:51;17.30;99.90
10149;DHT22;5115;50.920;6.376;2023-05-29T06:27:17;17.60;99.90
10149;DHT22;5115;50.920;6.376;2023-05-29T06:29:43;17.90;99.90
10149;DHT22;5115;50.920;6.376;2023-05-29T06:32:08;18.00;99.90
10149;DHT22;5115;50.920;6.376;2023-05-29T06:34:34;17.80;99.90
10149;DHT22;5115;50.920;6.376;2023-05-29T06:36:59;18.00;99.90
10149;DHT22;5115;50.920;6.376;2023-05-29T06:39:25;18.20;99.90
10149;DHT22;5115;50.920;6.376;2023-05-29T06:41:51;18.40;99.90
10149;DHT22;5115;50.920;6.376;2023-05-29T06:44:16;18.50;99.90
10149;DHT22;5115;50.920;6.376;2023-05-29T06:46:42;18.50;99.90
10149;DHT22;5115;50.920;6.376;2023-05-29T06:49:07;18.70;99.90
10149;DHT22;5115;50.920;6.376;2023-05-29T06:51:33;19.10;99.90
10149;DHT22;5115;50.920;6.376;2023-05-29T06:53:59;19.40;99.90
10149;DHT22;5115;50.920;6.376;2023-05-29T06:56:24;19.50;99.90
10149;DHT22;5115;50.920;6.376;2023-05-29T06:58:51;19.90;99.90
10149;DHT22;5115;50.920;6.376;2023-05-29T07:01:16;20.10;99.90
10149;DHT22;5115;50.920;6.376;2023-05-29T07:03:42;20.30;99.90
10149;DHT22;5115;50.920;6.376;2023-05-29T07:06:08;20.30;99.90
10149;DHT22;5115;50.920;6.376;2023-05-29T07:08:34;20.40;99.90
10149;DHT22;5115;50.920;6.376;2023-05-29T07:11:01;20.70;99.90
10149;DHT22;5115;50.920;6.376;2023-05-29T07:13:27;20.90;99.90
10149;DHT22;5115;50.920;6.376;2023-05-29T07:15:52;20.70;99.90
10149;DHT22;5115;50.920;6.376;2023-05-29T07:18:18;20.60;99.90
10149;DHT22;5115;50.920;6.376;2023-05-29T07:20:44;20.60;99.90
10149;DHT22;5115;50.920;6.376;2023-05-29T07:23:09;20.50;99.90
10149;DHT22;5115;50.920;6.376;2023-05-29T07:25:35;20.50;99.90
10149;DHT22;5115;50.920;6.376;2023-05-29T07:28:01;21.00;99.90
10149;DHT22;5115;50.920;6.376;2023-05-29T07:30:26;20.80;99.90
10149;DHT22;5115;50.920;6.376;2023-05-29T07:32:52;20.70;99.90
10149;DHT22;5115;50.920;6.376;2023-05-29T07:35:18;20.70;99.90
10149;DHT22;5115;50.920;6.376;2023-05-29T07:37:43;21.00;99.90
10149;DHT22;5115;50.920;6.376;2023-05-29T07:40:09;21.20;99.90
10149;DHT22;5115;50.920;6.376;2023-05-29T07:42:36;21.30;99.90
10149;DHT22;5115;50.920;6.376;2023-05-29T07:45:02;21.70;99.90
10149;DHT22;5115;50.920;6.376;2023-05-29T07:47:28;21.80;99.90
10149;DHT22;5115;50.920;6.376;2023-05-29T07:49:53;22.00;99.90
10149;DHT22;5115;50.920;6.376;2023-05-29T07:52:19;22.30;99.90
10149;DHT22;5115;50.920;6.376;2023-05-29T07:54:44;22.70;99.90
10149;DHT22;5115;50.920;6.376;2023-05-29T07:57:10;22.80;99.90
10149;DHT22;5115;50.920;6.376;2023-05-29T07:59:36;22.80;99.90
10149;DHT22;5115;50.920;6.376;2023-05-29T08:02:02;23.10;99.90
10149;DHT22;5115;50.920;6.376;2023-05-29T08:04:29;23.10;99.90
10149;DHT22;5115;50.920;6.376;2023-05-29T08:06:55;23.10;99.90
10149;DHT22;5115;50.920;6.376;2023-05-29T08:09:20;23.50;99.90
10149;DHT22;5115;50.920;6.376;2023-05-29T08:11:46;23.70;99.90
10149;DHT22;5115;50.920;6.376;2023-05-29T08:14:14;23.70;99.90
10149;DHT22;5115;50.920;6.376;2023-05-29T08:16:39;23.40;99.90
10149;DHT22;5115;50.920;6.376;2023-05-29T08:19:05;23.70;99.90
10149;DHT22;5115;50.920;6.376;2023-05-29T08:21:32;23.90;99.90
10149;DHT22;5115;50.920;6.376;2023-05-29T08:23:58;24.00;99.90
10149;DHT22;5115;50.920;6.376;2023-05-29T08:26:25;24.00;99.90
10149;DHT22;5115;50.920;6.376;2023-05-29T08:28:51;23.90;99.90
10149;DHT22;5115;50.920;6.376;2023-05-29T08:31:17;23.40;99.90
10149;DHT22;5115;50.920;6.376;2023-05-29T08:33:42;22.90;99.90
10149;DHT22;5115;50.920;6.376;2023-05-29T08:36:08;23.30;99.90
10149;DHT22;5115;50.920;6.376;2023-05-29T08:38:34;23.90;99.90
10149;DHT22;5115;50.920;6.376;2023-05-29T08:41:00;24.50;99.90
10149;DHT22;5115;50.920;6.376;2023-05-29T08:43:30;24.90;99.90
10149;DHT22;5115;50.920;6.376;2023-05-29T08:46:00;25.00;99.90
10149;DHT22;5115;50.920;6.376;2023-05-29T08:48:27;25.20;99.90
10149;DHT22;5115;50.920;6.376;2023-05-29T08:50:56;25.20;99.90
10149;DHT22;5115;50.920;6.376;2023-05-29T08:53:23;24.90;99.90
10149;DHT22;5115;50.920;6.376;2023-05-29T08:55:49;24.30;99.90
10149;DHT22;5115;50.920;6.376;2023-05-29T08:58:19;24.00;99.90
10149;DHT22;5115;50.920;6.376;2023-05-29T09:00:48;24.00;99.90
10149;DHT22;5115;50.920;6.376;2023-05-29T09:03:14;24.10;99.90
10149;DHT22;5115;50.920;6.376;2023-05-29T09:05:40;23.80;99.90
10149;DHT22;5115;50.920;6.376;2023-05-29T09:08:08;23.80;99.90
10149;DHT22;5115;50.920;6.376;2023-05-29T09:10:34;23.90;99.90
10149;DHT22;5115;50.920;6.376;2023-05-29T09:13:00;24.20;99.90
10149;DHT22;5115;50.920;6.376;2023-05-29T09:15:25;24.10;99.90
10149;DHT22;5115;50.920;6.376;2023-05-29T09:17:58;24.40;99.90
10149;DHT22;5115;50.920;6.376;2023-05-29T09:20:24;24.30;99.90
10149;DHT22;5115;50.920;6.376;2023-05-29T09:22:57;24.40;99.90
10149;DHT22;5115;50.920;6.376;2023-05-29T09:25:24;24.30;99.90
10149;DHT22;5115;50.920;6.376;2023-05-29T09:27:57;24.00;99.90
10149;DHT22;5115;50.920;6.376;2023-05-29T09:30:42;23.90;99.90
10149;DHT22;5115;50.920;6.376;2023-05-29T09:33:10;24.50;99.90
10149;DHT22;5115;50.920;6.376;2023-05-29T09:35:42;24.90;99.90
10149;DHT22;5115;50.920;6.376;2023-05-29T09:38:10;25.00;99.90
10149;DHT22;5115;50.920;6.376;2023-05-29T09:40:37;25.00;99.90
10149;DHT22;5115;50.920;6.376;2023-05-29T09:43:11;25.00;99.90
10149;DHT22;5115;50.920;6.376;2023-05-29T09:45:38;24.80;99.90
10149;DHT22;5115;50.920;6.376;2023-05-29T09:48:05;25.10;99.90
10149;DHT22;5115;50.920;6.376;2023-05-29T09:50:32;25.10;99.90
10149;DHT22;5115;50.920;6.376;2023-05-29T09:52:59;24.50;99.90
10149;DHT22;5115;50.920;6.376;2023-05-29T09:55:27;24.70;99.90
10149;DHT22;5115;50.920;6.376;2023-05-29T09:57:54;24.90;99.90
10149;DHT22;5115;50.920;6.376;2023-05-29T10:00:22;24.60;99.90
10149;DHT22;5115;50.920;6.376;2023-05-29T10:02:49;25.00;99.90
10149;DHT22;5115;50.920;6.376;2023-05-29T10:05:14;24.50;99.90
10149;DHT22;5115;50.920;6.376;2023-05-29T10:07:54;24.80;99.90
10149;DHT22;5115;50.920;6.376;2023-05-29T10:10:20;25.10;99.90
10149;DHT22;5115;50.920;6.376;2023-05-29T10:12:48;25.50;99.90
10149;DHT22;5115;50.920;6.376;2023-05-29T10:15:15;25.50;99.90
10149;DHT22;5115;50.920;6.376;2023-05-29T10:17:57;25.30;99.90
10149;DHT22;5115;50.920;6.376;2023-05-29T10:20:26;24.70;99.90
10149;DHT22;5115;50.920;6.376;2023-05-29T10:22:55;24.20;99.90
10149;DHT22;5115;50.920;6.376;2023-05-29T10:25:22;24.20;99.90
10149;DHT22;5115;50.920;6.376;2023-05-29T10:27:49;24.20;99.90
10149;DHT22;5115;50.920;6.376;2023-05-29T10:33:07;23.90;99.90
10149;DHT22;5115;50.920;6.376;2023-05-29T10:35:47;23.30;99.90
10149;DHT22;5115;50.920;6.376;2023-05-29T10:38:16;23.10;99.90
10149;DHT22;5115;50.920;6.376;2023-05-29T10:40:44;23.40;99.90
10149;DHT22;5115;50.920;6.376;2023-05-29T10:43:33;23.60;99.90
10149;DHT22;5115;50.920;6.376;2023-05-29T10:46:02;23.30;99.90
10149;DHT22;5115;50.920;6.376;2023-05-29T10:50:54;23.60;99.90
10149;DHT22;5115;50.920;6.376;2023-05-29T10:53:26;23.90;99.90
10149;DHT22;5115;50.920;6.376;2023-05-29T10:55:53;23.90;99.90
10149;DHT22;5115;50.920;6.376;2023-05-29T10:58:22;23.70;99.90
10149;DHT22;5115;50.920;6.376;2023-05-29T11:00:49;23.90;99.90
10149;DHT22;5115;50.920;6.376;2023-05-29T11:03:22;23.70;99.90
10149;DHT22;5115;50.920;6.376;2023-05-29T11:11:12;23.20;99.90
10149;DHT22;5115;50.920;6.376;2023-05-29T11:13:38;23.40;99.90
10149;DHT22;5115;50.920;6.376;2023-05-29T11:16:10;23.70;99.90
10149;DHT22;5115;50.920;6.376;2023-05-29T11:18:44;24.20;99.90
10149;DHT22;5115;50.920;6.376;2023-05-29T11:24:07;23.70;99.90
10149;DHT22;5115;50.920;6.376;2023-05-29T11:26:39;23.40;99.90
10149;DHT22;5115;50.920;6.376;2023-05-29T11:29:06;23.50;99.90
10149;DHT22;5115;50.920;6.376;2023-05-29T11:31:36;23.30;99.90
10149;DHT22;5115;50.920;6.376;2023-05-29T11:34:03;23.50;99.90
10149;DHT22;5115;50.920;6.376;2023-05-29T11:36:32;23.50;99.90
10149;DHT22;5115;50.920;6.376;2023-05-29T11:39:00;23.70;99.90
10149;DHT22;5115;50.920;6.376;2023-05-29T11:41:26;23.90;99.90
10149;DHT22;5115;50.920;6.376;2023-05-29T11:44:04;24.10;99.90
10149;DHT22;5115;50.920;6.376;2023-05-29T11:46:31;24.40;99.90
10149;DHT22;5115;50.920;6.376;2023-05-29T11:48:58;23.40;99.90
10149;DHT22;5115;50.920;6.376;2023-05-29T11:51:24;23.70;99.90
10149;DHT22;5115;50.920;6.376;2023-05-29T11:53:50;24.00;99.90
10149;DHT22;5115;50.920;6.376;2023-05-29T11:56:18;24.10;99.90
10149;DHT22;5115;50.920;6.376;2023-05-29T11:58:44;24.20;99.90
10149;DHT22;5115;50.920;6.376;2023-05-29T12:01:10;24.30;99.90
10149;DHT22;5115;50.920;6.376;2023-05-29T12:03:42;24.20;99.90
10149;DHT22;5115;50.920;6.376;2023-05-29T12:06:09;24.20;99.90
10149;DHT22;5115;50.920;6.376;2023-05-29T12:08:36;24.10;99.90
10149;DHT22;5115;50.920;6.376;2023-05-29T12:11:01;23.90;99.90
10149;DHT22;5115;50.920;6.376;2023-05-29T12:13:27;23.90;99.90
10149;DHT22;5115;50.920;6.376;2023-05-29T12:15:59;23.90;99.90
10149;DHT22;5115;50.920;6.376;2023-05-29T12:18:26;23.70;99.90
10149;DHT22;5115;50.920;6.376;2023-05-29T12:21:01;23.20;99.90
10149;DHT22;5115;50.920;6.376;2023-05-29T12:23:28;23.40;99.90
10149;DHT22;5115;50.920;6.376;2023-05-29T12:25:54;23.50;99.90
10149;DHT22;5115;50.920;6.376;2023-05-29T12:28:21;23.60;99.90
10149;DHT22;5115;50.920;6.376;2023-05-29T12:30:47;23.60;99.90
10149;DHT22;5115;50.920;6.376;2023-05-29T12:33:31;23.50;99.90
10149;DHT22;5115;50.920;6.376;2023-05-29T12:36:04;23.20;99.90
10149;DHT22;5115;50.920;6.376;2023-05-29T12:38:32;23.20;99.90
10149;DHT22;5115;50.920;6.376;2023-05-29T12:40:57;23.30;99.90
10149;DHT22;5115;50.920;6.376;2023-05-29T12:43:23;23.20;99.90
10149;DHT22;5115;50.920;6.376;2023-05-29T12:45:54;23.20;99.90
10149;DHT22;5115;50.920;6.376;2023-05-29T12:48:27;23.40;99.90
10149;DHT22;5115;50.920;6.376;2023-05-29T12:50:53;22.80;99.90
10149;DHT22;5115;50.920;6.376;2023-05-29T12:53:19;22.60;99.90
10149;DHT22;5115;50.920;6.376;2023-05-29T12:55:46;22.30;99.90
10149;DHT22;5115;50.920;6.376;2023-05-29T12:58:15;22.10;99.90
10149;DHT22;5115;50.920;6.376;2023-05-29T13:00:43;22.40;99.90
10149;DHT22;5115;50.920;6.376;2023-05-29T13:03:09;22.50;99.90
10149;DHT22;5115;50.920;6.376;2023-05-29T13:05:38;22.40;99.90
10149;DHT22;5115;50.920;6.376;2023-05-29T13:08:03;22.40;99.90
10149;DHT22;5115;50.920;6.376;2023-05-29T13:10:33;22.40;99.90
10149;DHT22;5115;50.920;6.376;2023-05-29T13:13:00;22.50;99.90
10149;DHT22;5115;50.920;6.376;2023-05-29T13:15:26;22.60;99.90
10149;DHT22;5115;50.920;6.376;2023-05-29T13:17:52;22.70;99.90
10149;DHT22;5115;50.920;6.376;2023-05-29T13:20:17;22.90;99.90
10149;DHT22;5115;50.920;6.376;2023-05-29T13:22:44;22.80;99.90
10149;DHT22;5115;50.920;6.376;2023-05-29T13:25:14;22.80;99.90
10149;DHT22;5115;50.920;6.376;2023-05-29T13:27:42;22.80;99.90
10149;DHT22;5115;50.920;6.376;2023-05-29T13:30:08;22.50;99.90
10149;DHT22;5115;50.920;6.376;2023-05-29T13:32:34;22.50;99.90
10149;DHT22;5115;50.920;6.376;2023-05-29T13:35:01;22.50;99.90
10149;DHT22;5115;50.920;6.376;2023-05-29T13:37:26;22.50;99.90
10149;DHT22;5115;50.920;6.376;2023-05-29T13:39:53;22.60;99.90
10149;DHT22;5115;50.920;6.376;2023-05-29T13:42:18;22.40;99.90
10149;DHT22;5115;50.920;6.376;2023-05-29T13:44:44;22.60;99.90
10149;DHT22;5115;50.920;6.376;2023-05-29T13:47:10;22.70;99.90
10149;DHT22;5115;50.920;6.376;2023-05-29T13:49:36;22.70;99.90
10149;DHT22;5115;50.920;6.376;2023-05-29T13:52:04;22.60;99.90
10149;DHT22;5115;50.920;6.376;2023-05-29T13:54:30;22.30;99.90
10149;DHT22;5115;50.920;6.376;2023-05-29T13:57:03;22.40;99.90
10149;DHT22;5115;50.920;6.376;2023-05-29T13:59:32;22.40;99.90
10149;DHT22;5115;50.920;6.376;2023-05-29T14:01:58;22.60;99.90
10149;DHT22;5115;50.920;6.376;2023-05-29T14:04:24;22.60;99.90
10149;DHT22;5115;50.920;6.376;2023-05-29T14:06:50;22.80;99.90
10149;DHT22;5115;50.920;6.376;2023-05-29T14:09:16;22.70;99.90
10149;DHT22;5115;50.920;6.376;2023-05-29T14:11:42;22.70;99.90
10149;DHT22;5115;50.920;6.376;2023-05-29T14:14:07;22.80;99.90
10149;DHT22;5115;50.920;6.376;2023-05-29T14:16:33;22.90;99.90
10149;DHT22;5115;50.920;6.376;2023-05-29T14:18:59;22.90;99.90
10149;DHT22;5115;50.920;6.376;2023-05-29T14:21:25;22.80;99.90
10149;DHT22;5115;50.920;6.376;2023-05-29T14:23:51;22.40;99.90
10149;DHT22;5115;50.920;6.376;2023-05-29T14:26:16;21.90;99.90
10149;DHT22;5115;50.920;6.376;2023-05-29T14:28:42;21.80;99.90
10149;DHT22;5115;50.920;6.376;2023-05-29T14:31:08;21.80;99.90
10149;DHT22;5115;50.920;6.376;2023-05-29T14:33:33;21.70;99.90
10149;DHT22;5115;50.920;6.376;2023-05-29T14:35:59;21.70;99.90
10149;DHT22;5115;50.920;6.376;2023-05-29T14:38:25;21.40;99.90
10149;DHT22;5115;50.920;6.376;2023-05-29T14:40:51;21.60;99.90
10149;DHT22;5115;50.920;6.376;2023-05-29T14:43:17;21.80;99.90
10149;DHT22;5115;50.920;6.376;2023-05-29T14:45:43;22.00;99.90
10149;DHT22;5115;50.920;6.376;2023-05-29T14:48:08;22.10;99.90
10149;DHT22;5115;50.920;6.376;2023-05-29T14:50:35;22.00;99.90
10149;DHT22;5115;50.920;6.376;2023-05-29T14:53:01;22.00;99.90
10149;DHT22;5115;50.920;6.376;2023-05-29T14:55:26;21.90;99.90
10149;DHT22;5115;50.920;6.376;2023-05-29T14:57:52;22.10;99.90
10149;DHT22;5115;50.920;6.376;2023-05-29T15:00:18;22.20;99.90
10149;DHT22;5115;50.920;6.376;2023-05-29T15:02:44;22.10;99.90
10149;DHT22;5115;50.920;6.376;2023-05-29T15:05:10;21.90;99.90
10149;DHT22;5115;50.920;6.376;2023-05-29T15:07:35;21.70;99.90
10149;DHT22;5115;50.920;6.376;2023-05-29T15:10:01;21.70;99.90
10149;DHT22;5115;50.920;6.376;2023-05-29T15:12:27;21.70;99.90
10149;DHT22;5115;50.920;6.376;2023-05-29T15:14:52;21.50;99.90
10149;DHT22;5115;50.920;6.376;2023-05-29T15:17:18;21.50;99.90
10149;DHT22;5115;50.920;6.376;2023-05-29T15:19:44;21.50;99.90
10149;DHT22;5115;50.920;6.376;2023-05-29T15:22:10;21.50;99.90
10149;DHT22;5115;50.920;6.376;2023-05-29T15:24:35;21.70;99.90
10149;DHT22;5115;50.920;6.376;2023-05-29T15:27:02;21.40;99.90
10149;DHT22;5115;50.920;6.376;2023-05-29T15:29:35;21.50;99.90
10149;DHT22;5115;50.920;6.376;2023-05-29T15:32:02;21.50;99.90
10149;DHT22;5115;50.920;6.376;2023-05-29T15:34:28;21.60;99.90
10149;DHT22;5115;50.920;6.376;2023-05-29T15:36:54;21.70;99.90
10149;DHT22;5115;50.920;6.376;2023-05-29T15:39:20;21.70;99.90
10149;DHT22;5115;50.920;6.376;2023-05-29T15:41:46;21.70;99.90
10149;DHT22;5115;50.920;6.376;2023-05-29T15:44:12;21.70;99.90
10149;DHT22;5115;50.920;6.376;2023-05-29T15:46:38;21.70;99.90
10149;DHT22;5115;50.920;6.376;2023-05-29T15:49:04;21.80;99.90
10149;DHT22;5115;50.920;6.376;2023-05-29T15:51:29;21.70;99.90
10149;DHT22;5115;50.920;6.376;2023-05-29T15:53:56;21.70;99.90
10149;DHT22;5115;50.920;6.376;2023-05-29T15:56:21;21.60;99.90
10149;DHT22;5115;50.920;6.376;2023-05-29T15:58:52;21.50;99.90
10149;DHT22;5115;50.920;6.376;2023-05-29T16:01:18;21.30;99.90
10149;DHT22;5115;50.920;6.376;2023-05-29T16:03:43;21.50;99.90